sensor_id;sensor_type;location;lat;lon;timestamp;temperature;humidity
46091;DHT22;31826;53.572;10.170;2022-10-31T00:00:49;11.60;99.90
46091;DHT22;31826;53.572;10.170;2022-10-31T00:03:16;11.60;99.90
46091;DHT22;31826;53.572;10.170;2022-10-31T00:05:45;11.60;99.90
46091;DHT22;31826;53.572;10.170;2022-10-31T00:08:11;11.50;99.90
46091;DHT22;31826;53.572;10.170;2022-10-31T00:10:40;11.60;99.90
46091;DHT22;31826;53.572;10.170;2022-10-31T00:13:08;11.60;99.90
46091;DHT22;31826;53.572;10.170;2022-10-31T00:15:39;11.60;99.90
46091;DHT22;31826;53.572;10.170;2022-10-31T00:18:06;11.60;99.90
46091;DHT22;31826;53.572;10.170;2022-10-31T00:20:32;11.60;99.90
46091;DHT22;31826;53.572;10.170;2022-10-31T00:23:02;11.60;99.90
46091;DHT22;31826;53.572;10.170;2022-10-31T00:25:29;11.50;99.90
46091;DHT22;31826;53.572;10.170;2022-10-31T00:27:57;11.60;99.90
46091;DHT22;31826;53.572;10.170;2022-10-31T00:30:23;11.60;99.90
46091;DHT22;31826;53.572;10.170;2022-10-31T00:32:49;11.60;99.90
46091;DHT22;31826;53.572;10.170;2022-10-31T00:35:15;11.60;99.90
46091;DHT22;31826;53.572;10.170;2022-10-31T00:37:40;11.70;99.90
46091;DHT22;31826;53.572;10.170;2022-10-31T00:40:07;11.70;99.90
46091;DHT22;31826;53.572;10.170;2022-10-31T00:42:32;11.70;99.90
46091;DHT22;31826;53.572;10.170;2022-10-31T00:44:58;11.60;99.90
46091;DHT22;31826;53.572;10.170;2022-10-31T00:47:24;11.50;99.90
46091;DHT22;31826;53.572;10.170;2022-10-31T00:49:49;11.60;99.90
46091;DHT22;31826;53.572;10.170;2022-10-31T00:52:15;11.60;99.90
46091;DHT22;31826;53.572;10.170;2022-10-31T00:54:41;11.60;99.90
46091;DHT22;31826;53.572;10.170;2022-10-31T00:57:06;11.60;99.90
46091;DHT22;31826;53.572;10.170;2022-10-31T00:59:32;11.60;99.90
46091;DHT22;31826;53.572;10.170;2022-10-31T01:01:58;11.60;99.90
46091;DHT22;31826;53.572;10.170;2022-10-31T01:04:23;11.50;99.90
46091;DHT22;31826;53.572;10.170;2022-10-31T01:06:49;11.50;99.90
46091;DHT22;31826;53.572;10.170;2022-10-31T01:09:15;11.60;99.90
46091;DHT22;31826;53.572;10.170;2022-10-31T01:11:40;11.60;99.90
46091;DHT22;31826;53.572;10.170;2022-10-31T01:14:06;11.50;99.90
46091;DHT22;31826;53.572;10.170;2022-10-31T01:16:32;11.50;99.90
46091;DHT22;31826;53.572;10.170;2022-10-31T01:18:58;11.40;99.90
46091;DHT22;31826;53.572;10.170;2022-10-31T01:21:26;11.50;99.90
46091;DHT22;31826;53.572;10.170;2022-10-31T01:23:56;11.50;99.90
46091;DHT22;31826;53.572;10.170;2022-10-31T01:26:27;11.50;99.90
46091;DHT22;31826;53.572;10.170;2022-10-31T01:29:01;11.50;99.90
46091;DHT22;31826;53.572;10.170;2022-10-31T01:31:29;11.60;99.90
46091;DHT22;31826;53.572;10.170;2022-10-31T01:33:56;11.50;99.90
46091;DHT22;31826;53.572;10.170;2022-10-31T01:36:31;11.60;99.90
46091;DHT22;31826;53.572;10.170;2022-10-31T01:38:59;11.60;99.90
46091;DHT22;31826;53.572;10.170;2022-10-31T01:41:29;11.50;99.90
46091;DHT22;31826;53.572;10.170;2022-10-31T01:43:57;11.60;99.90
46091;DHT22;31826;53.572;10.170;2022-10-31T01:46:35;11.60;99.90
46091;DHT22;31826;53.572;10.170;2022-10-31T01:49:51;11.60;99.90
46091;DHT22;31826;53.572;10.170;2022-10-31T01:52:19;11.70;99.90
46091;DHT22;31826;53.572;10.170;2022-10-31T01:54:45;11.70;99.90
46091;DHT22;31826;53.572;10.170;2022-10-31T01:57:14;11.60;99.90
46091;DHT22;31826;53.572;10.170;2022-10-31T01:59:42;11.60;99.90
46091;DHT22;31826;53.572;10.170;2022-10-31T02:02:10;11.60;99.90
46091;DHT22;31826;53.572;10.170;2022-10-31T02:04:37;11.60;99.90
46091;DHT22;31826;53.572;10.170;2022-10-31T02:07:13;11.60;99.90
46091;DHT22;31826;53.572;10.170;2022-10-31T02:09:41;11.60;99.90
46091;DHT22;31826;53.572;10.170;2022-10-31T02:12:09;11.60;99.90
46091;DHT22;31826;53.572;10.170;2022-10-31T02:14:36;11.60;99.90
46091;DHT22;31826;53.572;10.170;2022-10-31T02:17:03;11.60;99.90
46091;DHT22;31826;53.572;10.170;2022-10-31T02:22:18;11.50;99.90
46091;DHT22;31826;53.572;10.170;2022-10-31T02:24:58;11.50;99.90
46091;DHT22;31826;53.572;10.170;2022-10-31T02:33:43;11.60;99.90
46091;DHT22;31826;53.572;10.170;2022-10-31T02:51:58;12.10;99.90
46091;DHT22;31826;53.572;10.170;2022-10-31T02:54:26;12.20;99.90
46091;DHT22;31826;53.572;10.170;2022-10-31T02:57:02;12.30;99.90
46091;DHT22;31826;53.572;10.170;2022-10-31T02:59:30;12.30;99.90
46091;DHT22;31826;53.572;10.170;2022-10-31T03:02:42;12.40;99.90
46091;DHT22;31826;53.572;10.170;2022-10-31T03:10:45;12.50;99.90
46091;DHT22;31826;53.572;10.170;2022-10-31T03:13:41;12.40;99.90
46091;DHT22;31826;53.572;10.170;2022-10-31T03:16:14;12.30;99.90
46091;DHT22;31826;53.572;10.170;2022-10-31T03:18:53;12.40;99.90
46091;DHT22;31826;53.572;10.170;2022-10-31T03:21:27;12.30;99.90
46091;DHT22;31826;53.572;10.170;2022-10-31T03:23:56;12.30;99.90
46091;DHT22;31826;53.572;10.170;2022-10-31T03:26:23;12.10;99.90
46091;DHT22;31826;53.572;10.170;2022-10-31T03:29:05;12.10;99.90
46091;DHT22;31826;53.572;10.170;2022-10-31T03:31:38;12.10;99.90
46091;DHT22;31826;53.572;10.170;2022-10-31T03:34:07;12.00;99.90
46091;DHT22;31826;53.572;10.170;2022-10-31T03:36:35;12.00;99.90
46091;DHT22;31826;53.572;10.170;2022-10-31T03:39:05;11.90;99.90
46091;DHT22;31826;53.572;10.170;2022-10-31T03:41:34;11.90;99.90
46091;DHT22;31826;53.572;10.170;2022-10-31T03:44:11;11.90;99.90
46091;DHT22;31826;53.572;10.170;2022-10-31T03:46:39;11.90;99.90
46091;DHT22;31826;53.572;10.170;2022-10-31T03:49:05;11.90;99.90
46091;DHT22;31826;53.572;10.170;2022-10-31T03:59:36;11.80;99.90
46091;DHT22;31826;53.572;10.170;2022-10-31T04:02:12;11.80;99.90
46091;DHT22;31826;53.572;10.170;2022-10-31T04:04:39;11.90;99.90
46091;DHT22;31826;53.572;10.170;2022-10-31T04:07:06;12.00;99.90
46091;DHT22;31826;53.572;10.170;2022-10-31T04:09:35;11.90;99.90
46091;DHT22;31826;53.572;10.170;2022-10-31T04:12:05;11.90;99.90
46091;DHT22;31826;53.572;10.170;2022-10-31T04:14:36;11.90;99.90
46091;DHT22;31826;53.572;10.170;2022-10-31T04:17:06;11.90;99.90
46091;DHT22;31826;53.572;10.170;2022-10-31T04:19:33;11.90;99.90
46091;DHT22;31826;53.572;10.170;2022-10-31T04:21:59;11.90;99.90
46091;DHT22;31826;53.572;10.170;2022-10-31T04:24:25;11.90;99.90
46091;DHT22;31826;53.572;10.170;2022-10-31T04:26:51;11.80;99.90
46091;DHT22;31826;53.572;10.170;2022-10-31T04:29:17;11.60;99.90
46091;DHT22;31826;53.572;10.170;2022-10-31T04:31:42;11.70;99.90
46091;DHT22;31826;53.572;10.170;2022-10-31T04:34:08;11.60;99.90
46091;DHT22;31826;53.572;10.170;2022-10-31T04:36:34;11.50;99.90
46091;DHT22;31826;53.572;10.170;2022-10-31T04:38:59;11.50;99.90
46091;DHT22;31826;53.572;10.170;2022-10-31T04:41:25;11.40;99.90
46091;DHT22;31826;53.572;10.170;2022-10-31T04:43:51;11.40;99.90
46091;DHT22;31826;53.572;10.170;2022-10-31T04:46:17;11.40;99.90
46091;DHT22;31826;53.572;10.170;2022-10-31T04:48:42;11.40;99.90
46091;DHT22;31826;53.572;10.170;2022-10-31T04:51:08;11.40;99.90
46091;DHT22;31826;53.572;10.170;2022-10-31T04:53:34;11.40;99.90
46091;DHT22;31826;53.572;10.170;2022-10-31T04:55:59;11.40;99.90
46091;DHT22;31826;53.572;10.170;2022-10-31T04:58:26;11.40;99.90
46091;DHT22;31826;53.572;10.170;2022-10-31T05:00:56;11.40;99.90
46091;DHT22;31826;53.572;10.170;2022-10-31T05:03:21;11.50;99.90
46091;DHT22;31826;53.572;10.170;2022-10-31T05:05:48;11.50;99.90
46091;DHT22;31826;53.572;10.170;2022-10-31T05:08:14;11.50;99.90
46091;DHT22;31826;53.572;10.170;2022-10-31T05:10:40;11.50;99.90
46091;DHT22;31826;53.572;10.170;2022-10-31T05:13:06;11.50;99.90
46091;DHT22;31826;53.572;10.170;2022-10-31T05:15:32;11.60;99.90
46091;DHT22;31826;53.572;10.170;2022-10-31T05:17:58;11.60;99.90
46091;DHT22;31826;53.572;10.170;2022-10-31T05:20:26;11.70;99.90
46091;DHT22;31826;53.572;10.170;2022-10-31T05:22:53;11.70;99.90
46091;DHT22;31826;53.572;10.170;2022-10-31T05:25:21;11.70;99.90
46091;DHT22;31826;53.572;10.170;2022-10-31T05:27:48;11.70;99.90
46091;DHT22;31826;53.572;10.170;2022-10-31T05:30:17;11.70;99.90
46091;DHT22;31826;53.572;10.170;2022-10-31T05:32:45;11.70;99.90
46091;DHT22;31826;53.572;10.170;2022-10-31T05:35:16;11.80;99.90
46091;DHT22;31826;53.572;10.170;2022-10-31T05:37:42;11.80;99.90
46091;DHT22;31826;53.572;10.170;2022-10-31T05:40:09;11.80;99.90
46091;DHT22;31826;53.572;10.170;2022-10-31T05:42:35;11.80;99.90
46091;DHT22;31826;53.572;10.170;2022-10-31T05:45:03;11.80;99.90
46091;DHT22;31826;53.572;10.170;2022-10-31T05:47:29;11.80;99.90
46091;DHT22;31826;53.572;10.170;2022-10-31T05:49:55;11.90;99.90
46091;DHT22;31826;53.572;10.170;2022-10-31T05:52:21;11.90;99.90
46091;DHT22;31826;53.572;10.170;2022-10-31T05:54:46;11.90;99.90
46091;DHT22;31826;53.572;10.170;2022-10-31T05:57:12;11.90;99.90
46091;DHT22;31826;53.572;10.170;2022-10-31T05:59:38;12.00;99.90
46091;DHT22;31826;53.572;10.170;2022-10-31T06:02:03;12.00;99.90
46091;DHT22;31826;53.572;10.170;2022-10-31T06:04:29;11.90;99.90
46091;DHT22;31826;53.572;10.170;2022-10-31T06:06:56;12.00;99.90
46091;DHT22;31826;53.572;10.170;2022-10-31T06:09:22;12.00;99.90
46091;DHT22;31826;53.572;10.170;2022-10-31T06:11:48;12.00;99.90
46091;DHT22;31826;53.572;10.170;2022-10-31T06:14:13;12.00;99.90
46091;DHT22;31826;53.572;10.170;2022-10-31T06:16:39;12.00;99.90
46091;DHT22;31826;53.572;10.170;2022-10-31T06:19:05;12.00;99.90
46091;DHT22;31826;53.572;10.170;2022-10-31T06:21:31;12.10;99.90
46091;DHT22;31826;53.572;10.170;2022-10-31T06:23:57;12.10;99.90
46091;DHT22;31826;53.572;10.170;2022-10-31T06:26:22;12.20;99.90
46091;DHT22;31826;53.572;10.170;2022-10-31T06:28:48;12.20;99.90
46091;DHT22;31826;53.572;10.170;2022-10-31T06:31:14;12.30;99.90
46091;DHT22;31826;53.572;10.170;2022-10-31T06:33:41;12.40;99.90
46091;DHT22;31826;53.572;10.170;2022-10-31T06:36:08;12.50;99.90
46091;DHT22;31826;53.572;10.170;2022-10-31T06:38:34;12.50;99.90
46091;DHT22;31826;53.572;10.170;2022-10-31T06:41:04;12.50;99.90
46091;DHT22;31826;53.572;10.170;2022-10-31T06:43:30;12.60;99.90
46091;DHT22;31826;53.572;10.170;2022-10-31T06:45:56;12.60;99.90
46091;DHT22;31826;53.572;10.170;2022-10-31T06:48:23;12.60;99.90
46091;DHT22;31826;53.572;10.170;2022-10-31T06:50:49;12.60;99.90
46091;DHT22;31826;53.572;10.170;2022-10-31T06:53:14;12.60;99.90
46091;DHT22;31826;53.572;10.170;2022-10-31T06:55:41;12.60;99.90
46091;DHT22;31826;53.572;10.170;2022-10-31T06:58:09;12.60;99.90
46091;DHT22;31826;53.572;10.170;2022-10-31T07:00:35;12.70;99.90
46091;DHT22;31826;53.572;10.170;2022-10-31T07:03:03;12.70;99.90
46091;DHT22;31826;53.572;10.170;2022-10-31T07:05:30;12.70;99.90
46091;DHT22;31826;53.572;10.170;2022-10-31T07:08:00;12.70;99.90
46091;DHT22;31826;53.572;10.170;2022-10-31T07:10:29;12.80;99.90
46091;DHT22;31826;53.572;10.170;2022-10-31T07:12:56;12.80;99.90
46091;DHT22;31826;53.572;10.170;2022-10-31T07:15:26;12.80;99.90
46091;DHT22;31826;53.572;10.170;2022-10-31T07:17:52;12.80;99.90
46091;DHT22;31826;53.572;10.170;2022-10-31T07:20:18;12.80;99.90
46091;DHT22;31826;53.572;10.170;2022-10-31T07:22:44;12.80;99.90
46091;DHT22;31826;53.572;10.170;2022-10-31T07:25:09;12.80;99.90
46091;DHT22;31826;53.572;10.170;2022-10-31T07:27:42;12.80;99.90
46091;DHT22;31826;53.572;10.170;2022-10-31T07:30:10;12.90;99.90
46091;DHT22;31826;53.572;10.170;2022-10-31T07:32:40;12.80;99.90
46091;DHT22;31826;53.572;10.170;2022-10-31T07:35:10;12.90;99.90
46091;DHT22;31826;53.572;10.170;2022-10-31T07:37:36;13.00;99.90
46091;DHT22;31826;53.572;10.170;2022-10-31T07:40:04;13.10;99.90
46091;DHT22;31826;53.572;10.170;2022-10-31T07:42:38;13.10;99.90
46091;DHT22;31826;53.572;10.170;2022-10-31T07:45:06;13.10;99.90
46091;DHT22;31826;53.572;10.170;2022-10-31T07:47:43;13.10;99.90
46091;DHT22;31826;53.572;10.170;2022-10-31T07:50:15;13.10;99.90
46091;DHT22;31826;53.572;10.170;2022-10-31T07:52:41;13.10;99.90
46091;DHT22;31826;53.572;10.170;2022-10-31T07:55:08;13.00;99.90
46091;DHT22;31826;53.572;10.170;2022-10-31T07:57:34;13.10;99.90
46091;DHT22;31826;53.572;10.170;2022-10-31T08:00:00;13.20;99.90
46091;DHT22;31826;53.572;10.170;2022-10-31T08:02:26;13.20;99.90
46091;DHT22;31826;53.572;10.170;2022-10-31T08:04:52;13.10;99.90
46091;DHT22;31826;53.572;10.170;2022-10-31T08:07:18;13.20;99.90
46091;DHT22;31826;53.572;10.170;2022-10-31T08:09:44;13.10;99.90
46091;DHT22;31826;53.572;10.170;2022-10-31T08:12:09;13.20;99.90
46091;DHT22;31826;53.572;10.170;2022-10-31T08:14:35;13.30;99.90
46091;DHT22;31826;53.572;10.170;2022-10-31T08:17:01;13.30;99.90
46091;DHT22;31826;53.572;10.170;2022-10-31T08:19:26;13.40;99.90
46091;DHT22;31826;53.572;10.170;2022-10-31T08:21:53;13.40;99.90
46091;DHT22;31826;53.572;10.170;2022-10-31T08:24:21;13.50;99.90
46091;DHT22;31826;53.572;10.170;2022-10-31T08:26:47;13.50;99.90
46091;DHT22;31826;53.572;10.170;2022-10-31T08:29:12;13.50;99.90
46091;DHT22;31826;53.572;10.170;2022-10-31T08:31:40;13.50;99.90
46091;DHT22;31826;53.572;10.170;2022-10-31T08:34:05;13.50;99.90
46091;DHT22;31826;53.572;10.170;2022-10-31T08:36:31;13.50;99.90
46091;DHT22;31826;53.572;10.170;2022-10-31T08:38:57;13.50;99.90
46091;DHT22;31826;53.572;10.170;2022-10-31T08:41:23;13.50;99.90
46091;DHT22;31826;53.572;10.170;2022-10-31T08:43:48;13.50;99.90
46091;DHT22;31826;53.572;10.170;2022-10-31T08:46:14;13.50;99.90
46091;DHT22;31826;53.572;10.170;2022-10-31T08:48:40;13.60;99.90
46091;DHT22;31826;53.572;10.170;2022-10-31T08:51:08;13.60;99.90
46091;DHT22;31826;53.572;10.170;2022-10-31T08:53:33;13.60;99.90
46091;DHT22;31826;53.572;10.170;2022-10-31T08:55:59;13.60;99.90
46091;DHT22;31826;53.572;10.170;2022-10-31T08:58:25;13.60;99.90
46091;DHT22;31826;53.572;10.170;2022-10-31T09:00:53;13.60;99.90
46091;DHT22;31826;53.572;10.170;2022-10-31T09:03:22;13.60;99.90
46091;DHT22;31826;53.572;10.170;2022-10-31T09:05:48;13.70;99.90
46091;DHT22;31826;53.572;10.170;2022-10-31T09:08:14;13.60;99.90
46091;DHT22;31826;53.572;10.170;2022-10-31T09:10:40;13.50;99.90
46091;DHT22;31826;53.572;10.170;2022-10-31T09:13:20;13.40;99.90
46091;DHT22;31826;53.572;10.170;2022-10-31T09:15:47;13.40;99.90
46091;DHT22;31826;53.572;10.170;2022-10-31T09:18:15;13.40;99.90
46091;DHT22;31826;53.572;10.170;2022-10-31T09:20:43;13.40;99.90
46091;DHT22;31826;53.572;10.170;2022-10-31T09:23:20;13.50;99.90
46091;DHT22;31826;53.572;10.170;2022-10-31T09:25:47;13.50;99.90
46091;DHT22;31826;53.572;10.170;2022-10-31T09:28:15;13.60;99.90
46091;DHT22;31826;53.572;10.170;2022-10-31T09:30:41;13.70;99.90
46091;DHT22;31826;53.572;10.170;2022-10-31T09:33:10;13.70;99.90
46091;DHT22;31826;53.572;10.170;2022-10-31T09:35:37;13.80;99.90
46091;DHT22;31826;53.572;10.170;2022-10-31T09:38:05;13.70;99.90
46091;DHT22;31826;53.572;10.170;2022-10-31T09:40:49;13.70;99.90
46091;DHT22;31826;53.572;10.170;2022-10-31T09:46:16;13.60;99.90
46091;DHT22;31826;53.572;10.170;2022-10-31T09:51:50;13.90;99.90
46091;DHT22;31826;53.572;10.170;2022-10-31T09:54:26;14.00;99.90
46091;DHT22;31826;53.572;10.170;2022-10-31T09:56:52;14.00;99.90
46091;DHT22;31826;53.572;10.170;2022-10-31T09:59:30;14.00;99.90
46091;DHT22;31826;53.572;10.170;2022-10-31T10:02:23;14.00;99.90
46091;DHT22;31826;53.572;10.170;2022-10-31T10:04:59;14.00;99.90
46091;DHT22;31826;53.572;10.170;2022-10-31T10:16:10;14.10;99.90
46091;DHT22;31826;53.572;10.170;2022-10-31T10:30:21;14.20;99.90
46091;DHT22;31826;53.572;10.170;2022-10-31T10:32:54;14.30;99.90
46091;DHT22;31826;53.572;10.170;2022-10-31T10:40:32;14.50;99.90
46091;DHT22;31826;53.572;10.170;2022-10-31T10:43:22;14.50;99.90
46091;DHT22;31826;53.572;10.170;2022-10-31T10:52:02;14.70;99.90
46091;DHT22;31826;53.572;10.170;2022-10-31T10:58:21;14.70;99.90
46091;DHT22;31826;53.572;10.170;2022-10-31T11:00:45;14.80;99.90
46091;DHT22;31826;53.572;10.170;2022-10-31T11:03:16;14.90;99.90
46091;DHT22;31826;53.572;10.170;2022-10-31T11:05:51;15.00;99.90
46091;DHT22;31826;53.572;10.170;2022-10-31T11:08:32;15.30;99.90
46091;DHT22;31826;53.572;10.170;2022-10-31T11:13:37;16.60;99.90
46091;DHT22;31826;53.572;10.170;2022-10-31T11:16:25;17.40;99.90
46091;DHT22;31826;53.572;10.170;2022-10-31T11:18:53;18.20;99.90
46091;DHT22;31826;53.572;10.170;2022-10-31T11:21:28;19.00;99.90
46091;DHT22;31826;53.572;10.170;2022-10-31T11:26:38;19.50;99.90
46091;DHT22;31826;53.572;10.170;2022-10-31T11:29:05;19.20;99.90
46091;DHT22;31826;53.572;10.170;2022-10-31T11:31:36;19.20;99.90
46091;DHT22;31826;53.572;10.170;2022-10-31T11:34:04;18.50;99.90
46091;DHT22;31826;53.572;10.170;2022-10-31T11:36:37;18.30;99.90
46091;DHT22;31826;53.572;10.170;2022-10-31T11:39:05;18.10;99.90
46091;DHT22;31826;53.572;10.170;2022-10-31T11:41:38;18.30;99.90
46091;DHT22;31826;53.572;10.170;2022-10-31T11:46:41;19.30;99.90
46091;DHT22;31826;53.572;10.170;2022-10-31T11:51:41;19.50;99.90
46091;DHT22;31826;53.572;10.170;2022-10-31T11:54:23;18.30;99.90
46091;DHT22;31826;53.572;10.170;2022-10-31T11:56:50;17.00;99.90
46091;DHT22;31826;53.572;10.170;2022-10-31T11:59:25;16.40;99.90
46091;DHT22;31826;53.572;10.170;2022-10-31T12:01:53;16.30;99.90
46091;DHT22;31826;53.572;10.170;2022-10-31T12:07:13;15.80;99.90
46091;DHT22;31826;53.572;10.170;2022-10-31T12:09:40;15.80;99.90
46091;DHT22;31826;53.572;10.170;2022-10-31T12:12:35;16.50;99.90
46091;DHT22;31826;53.572;10.170;2022-10-31T12:18:33;18.00;99.90
46091;DHT22;31826;53.572;10.170;2022-10-31T12:29:52;19.10;99.90
46091;DHT22;31826;53.572;10.170;2022-10-31T12:35:27;19.90;99.90
46091;DHT22;31826;53.572;10.170;2022-10-31T12:38:00;19.30;99.90
46091;DHT22;31826;53.572;10.170;2022-10-31T12:46:47;18.80;99.90
46091;DHT22;31826;53.572;10.170;2022-10-31T12:49:22;18.50;99.90
46091;DHT22;31826;53.572;10.170;2022-10-31T12:52:10;18.20;99.90
46091;DHT22;31826;53.572;10.170;2022-10-31T12:55:09;17.30;99.90
46091;DHT22;31826;53.572;10.170;2022-10-31T12:57:42;16.90;99.90
46091;DHT22;31826;53.572;10.170;2022-10-31T13:00:15;16.50;99.90
46091;DHT22;31826;53.572;10.170;2022-10-31T13:02:51;16.50;99.90
46091;DHT22;31826;53.572;10.170;2022-10-31T13:10:32;16.20;99.90
46091;DHT22;31826;53.572;10.170;2022-10-31T13:13:05;16.20;99.90
46091;DHT22;31826;53.572;10.170;2022-10-31T13:15:48;15.90;99.90
46091;DHT22;31826;53.572;10.170;2022-10-31T13:18:25;15.80;99.90
46091;DHT22;31826;53.572;10.170;2022-10-31T13:20:53;15.80;99.90
46091;DHT22;31826;53.572;10.170;2022-10-31T13:23:33;15.80;99.90
46091;DHT22;31826;53.572;10.170;2022-10-31T13:26:06;15.80;99.90
46091;DHT22;31826;53.572;10.170;2022-10-31T13:29:33;15.70;99.90
46091;DHT22;31826;53.572;10.170;2022-10-31T13:31:42;15.70;99.90
46091;DHT22;31826;53.572;10.170;2022-10-31T13:34:34;15.70;99.90
46091;DHT22;31826;53.572;10.170;2022-10-31T13:42:38;15.50;99.90
46091;DHT22;31826;53.572;10.170;2022-10-31T13:45:18;15.40;99.90
46091;DHT22;31826;53.572;10.170;2022-10-31T13:47:56;15.50;99.90
46091;DHT22;31826;53.572;10.170;2022-10-31T13:50:25;15.60;99.90
46091;DHT22;31826;53.572;10.170;2022-10-31T13:52:51;15.70;99.90
46091;DHT22;31826;53.572;10.170;2022-10-31T13:55:40;15.50;99.90
46091;DHT22;31826;53.572;10.170;2022-10-31T13:58:27;15.40;99.90
46091;DHT22;31826;53.572;10.170;2022-10-31T14:03:41;15.10;99.90
46091;DHT22;31826;53.572;10.170;2022-10-31T14:06:09;15.30;99.90
46091;DHT22;31826;53.572;10.170;2022-10-31T14:08:39;15.10;99.90
46091;DHT22;31826;53.572;10.170;2022-10-31T14:11:07;15.00;99.90
46091;DHT22;31826;53.572;10.170;2022-10-31T14:13:37;14.90;99.90
46091;DHT22;31826;53.572;10.170;2022-10-31T14:16:22;14.90;99.90
46091;DHT22;31826;53.572;10.170;2022-10-31T14:18:56;15.00;99.90
46091;DHT22;31826;53.572;10.170;2022-10-31T14:23:52;15.00;99.90
46091;DHT22;31826;53.572;10.170;2022-10-31T14:28:59;14.80;99.90
46091;DHT22;31826;53.572;10.170;2022-10-31T14:45:05;14.20;99.90
46091;DHT22;31826;53.572;10.170;2022-10-31T14:52:56;14.30;99.90
46091;DHT22;31826;53.572;10.170;2022-10-31T14:55:23;14.30;99.90
46091;DHT22;31826;53.572;10.170;2022-10-31T14:58:00;14.30;99.90
46091;DHT22;31826;53.572;10.170;2022-10-31T15:00:28;14.30;99.90
46091;DHT22;31826;53.572;10.170;2022-10-31T15:03:16;14.30;99.90
46091;DHT22;31826;53.572;10.170;2022-10-31T15:05:52;14.20;99.90
46091;DHT22;31826;53.572;10.170;2022-10-31T15:10:56;14.10;99.90
46091;DHT22;31826;53.572;10.170;2022-10-31T15:13:22;14.00;99.90
46091;DHT22;31826;53.572;10.170;2022-10-31T15:15:49;14.00;99.90
46091;DHT22;31826;53.572;10.170;2022-10-31T15:18:23;14.00;99.90
46091;DHT22;31826;53.572;10.170;2022-10-31T15:20:50;14.00;99.90
46091;DHT22;31826;53.572;10.170;2022-10-31T15:25:47;14.00;99.90
46091;DHT22;31826;53.572;10.170;2022-10-31T15:28:24;13.90;99.90
46091;DHT22;31826;53.572;10.170;2022-10-31T15:30:58;13.90;99.90
46091;DHT22;31826;53.572;10.170;2022-10-31T15:33:29;13.80;99.90
46091;DHT22;31826;53.572;10.170;2022-10-31T15:36:00;13.60;99.90
46091;DHT22;31826;53.572;10.170;2022-10-31T15:38:28;13.60;99.90
46091;DHT22;31826;53.572;10.170;2022-10-31T15:41:04;13.60;99.90
46091;DHT22;31826;53.572;10.170;2022-10-31T15:43:36;13.50;99.90
46091;DHT22;31826;53.572;10.170;2022-10-31T15:46:03;13.50;99.90
46091;DHT22;31826;53.572;10.170;2022-10-31T15:48:32;13.50;99.90
46091;DHT22;31826;53.572;10.170;2022-10-31T15:50:59;13.50;99.90
46091;DHT22;31826;53.572;10.170;2022-10-31T15:56:13;13.50;99.90
46091;DHT22;31826;53.572;10.170;2022-10-31T15:58:47;13.40;99.90
46091;DHT22;31826;53.572;10.170;2022-10-31T16:01:31;13.30;99.90
46091;DHT22;31826;53.572;10.170;2022-10-31T16:06:38;13.20;99.90
46091;DHT22;31826;53.572;10.170;2022-10-31T16:09:20;13.20;99.90
46091;DHT22;31826;53.572;10.170;2022-10-31T16:11:46;13.10;99.90
46091;DHT22;31826;53.572;10.170;2022-10-31T16:16:44;12.90;99.90
46091;DHT22;31826;53.572;10.170;2022-10-31T16:19:20;12.90;99.90
46091;DHT22;31826;53.572;10.170;2022-10-31T16:21:50;12.90;99.90
46091;DHT22;31826;53.572;10.170;2022-10-31T16:24:26;13.00;99.90
46091;DHT22;31826;53.572;10.170;2022-10-31T16:26:54;12.90;99.90
46091;DHT22;31826;53.572;10.170;2022-10-31T16:29:58;12.90;99.90
46091;DHT22;31826;53.572;10.170;2022-10-31T16:32:35;12.70;99.90
46091;DHT22;31826;53.572;10.170;2022-10-31T16:35:25;12.70;99.90
46091;DHT22;31826;53.572;10.170;2022-10-31T16:37:52;12.70;99.90
46091;DHT22;31826;53.572;10.170;2022-10-31T16:40:18;12.80;99.90
46091;DHT22;31826;53.572;10.170;2022-10-31T16:42:44;12.80;99.90
46091;DHT22;31826;53.572;10.170;2022-10-31T16:45:22;12.70;99.90
46091;DHT22;31826;53.572;10.170;2022-10-31T16:47:48;12.80;99.90
46091;DHT22;31826;53.572;10.170;2022-10-31T16:50:21;12.80;99.90
46091;DHT22;31826;53.572;10.170;2022-10-31T16:52:47;12.80;99.90
46091;DHT22;31826;53.572;10.170;2022-10-31T16:55:15;12.90;99.90
46091;DHT22;31826;53.572;10.170;2022-10-31T16:57:44;12.80;99.90
46091;DHT22;31826;53.572;10.170;2022-10-31T17:00:19;12.80;99.90
46091;DHT22;31826;53.572;10.170;2022-10-31T17:02:46;12.90;99.90
46091;DHT22;31826;53.572;10.170;2022-10-31T17:05:14;12.90;99.90
46091;DHT22;31826;53.572;10.170;2022-10-31T17:07:40;13.00;99.90
46091;DHT22;31826;53.572;10.170;2022-10-31T17:10:07;12.90;99.90
46091;DHT22;31826;53.572;10.170;2022-10-31T17:12:34;12.80;99.90
46091;DHT22;31826;53.572;10.170;2022-10-31T17:15:00;12.90;99.90
46091;DHT22;31826;53.572;10.170;2022-10-31T17:17:26;13.00;99.90
46091;DHT22;31826;53.572;10.170;2022-10-31T17:19:52;13.00;99.90
46091;DHT22;31826;53.572;10.170;2022-10-31T17:22:18;13.00;99.90
46091;DHT22;31826;53.572;10.170;2022-10-31T17:24:43;13.00;99.90
46091;DHT22;31826;53.572;10.170;2022-10-31T17:27:09;13.00;99.90
46091;DHT22;31826;53.572;10.170;2022-10-31T17:29:35;12.90;99.90
46091;DHT22;31826;53.572;10.170;2022-10-31T17:32:01;12.90;99.90
46091;DHT22;31826;53.572;10.170;2022-10-31T17:34:30;12.90;99.90
46091;DHT22;31826;53.572;10.170;2022-10-31T17:36:56;12.90;99.90
46091;DHT22;31826;53.572;10.170;2022-10-31T17:39:21;12.80;99.90
46091;DHT22;31826;53.572;10.170;2022-10-31T17:41:50;12.90;99.90
46091;DHT22;31826;53.572;10.170;2022-10-31T17:44:17;12.90;99.90
46091;DHT22;31826;53.572;10.170;2022-10-31T17:46:43;13.00;99.90
46091;DHT22;31826;53.572;10.170;2022-10-31T17:49:10;13.10;99.90
46091;DHT22;31826;53.572;10.170;2022-10-31T17:51:37;13.10;99.90
46091;DHT22;31826;53.572;10.170;2022-10-31T17:54:02;13.00;99.90
46091;DHT22;31826;53.572;10.170;2022-10-31T17:56:30;13.10;99.90
46091;DHT22;31826;53.572;10.170;2022-10-31T17:58:56;13.00;99.90
46091;DHT22;31826;53.572;10.170;2022-10-31T18:01:22;13.10;99.90
46091;DHT22;31826;53.572;10.170;2022-10-31T18:03:48;13.00;99.90
46091;DHT22;31826;53.572;10.170;2022-10-31T18:06:14;12.90;99.90
46091;DHT22;31826;53.572;10.170;2022-10-31T18:08:42;12.90;99.90
46091;DHT22;31826;53.572;10.170;2022-10-31T18:11:11;12.90;99.90
46091;DHT22;31826;53.572;10.170;2022-10-31T18:13:39;12.80;99.90
46091;DHT22;31826;53.572;10.170;2022-10-31T18:16:12;12.80;99.90